createdAt,value
2017-07-27T00:01:07.798Z,8.33
2017-07-27T00:03:36.039Z,8.30
2017-07-27T00:06:04.309Z,8.80
2017-07-27T00:08:32.623Z,8.90
2017-07-27T00:11:00.860Z,8.50
2017-07-27T00:13:29.139Z,8.67
2017-07-27T00:15:57.439Z,6.67
2017-07-27T00:18:25.729Z,9.30
2017-07-27T00:20:53.965Z,8.67
2017-07-27T00:23:22.260Z,8.30
2017-07-27T00:25:50.504Z,8.60
2017-07-27T00:28:19.143Z,9.43
2017-07-27T00:30:47.739Z,6.60
2017-07-27T00:33:15.987Z,8.00
2017-07-27T00:35:44.239Z,7.63
2017-07-27T00:38:12.602Z,8.30
2017-07-27T00:40:41.065Z,7.60
2017-07-27T00:43:09.353Z,8.47
2017-07-27T00:45:37.756Z,8.00
2017-07-27T00:48:06.000Z,7.37
2017-07-27T00:50:34.261Z,7.07
2017-07-27T00:53:02.537Z,14.57
2017-07-27T00:55:30.780Z,8.13
2017-07-27T00:57:59.028Z,9.30
2017-07-27T01:00:27.475Z,11.10
2017-07-27T01:02:55.728Z,9.00
2017-07-27T01:05:23.980Z,8.70
2017-07-27T01:07:52.280Z,7.67
2017-07-27T01:10:20.519Z,7.07
2017-07-27T01:12:48.766Z,6.60
2017-07-27T01:15:17.065Z,8.23
2017-07-27T01:17:45.706Z,8.10
2017-07-27T01:20:13.954Z,7.87
2017-07-27T01:22:42.349Z,8.27
2017-07-27T01:25:10.594Z,8.10
2017-07-27T01:27:38.834Z,9.40
2017-07-27T01:30:07.159Z,8.40
2017-07-27T01:32:35.932Z,8.80
2017-07-27T01:35:04.187Z,8.53
2017-07-27T01:37:32.863Z,8.10
2017-07-27T01:40:01.514Z,9.27
2017-07-27T01:42:29.794Z,9.30
2017-07-27T01:44:58.088Z,9.37
2017-07-27T01:47:26.325Z,10.10
2017-07-27T01:49:54.580Z,9.30
2017-07-27T01:52:22.969Z,10.50
2017-07-27T01:54:51.226Z,11.73
2017-07-27T01:57:19.570Z,10.23
2017-07-27T01:59:47.852Z,11.43
2017-07-27T02:02:16.508Z,10.10
2017-07-27T02:04:44.771Z,9.83
2017-07-27T02:07:13.231Z,10.47
2017-07-27T02:09:41.481Z,8.80
2017-07-27T02:12:10.125Z,7.97
2017-07-27T02:14:38.391Z,10.20
2017-07-27T02:17:06.656Z,8.50
2017-07-27T02:19:34.905Z,9.50
2017-07-27T02:22:03.172Z,9.60
2017-07-27T02:24:31.441Z,8.03
2017-07-27T02:27:00.087Z,8.77
2017-07-27T02:29:28.547Z,9.30
2017-07-27T02:31:56.816Z,9.00
2017-07-27T02:34:25.721Z,8.80
2017-07-27T02:36:54.032Z,10.27
2017-07-27T02:39:22.301Z,11.10
2017-07-27T02:41:50.564Z,9.50
2017-07-27T02:44:19.036Z,11.80
2017-07-27T02:46:47.287Z,11.80
2017-07-27T02:49:15.560Z,10.60
2017-07-27T02:51:43.848Z,9.50
2017-07-27T02:54:12.114Z,10.93
2017-07-27T02:56:40.393Z,9.37
2017-07-27T02:59:08.773Z,9.20
2017-07-27T03:01:37.023Z,9.20
2017-07-27T03:04:05.265Z,8.73
2017-07-27T03:06:33.724Z,8.30
2017-07-27T03:09:02.012Z,9.50
2017-07-27T03:11:30.260Z,7.97
2017-07-27T03:13:58.542Z,9.10
2017-07-27T03:16:26.785Z,8.63
2017-07-27T03:18:55.024Z,8.40
2017-07-27T03:21:23.320Z,10.50
2017-07-27T03:23:51.797Z,9.30
2017-07-27T03:26:20.688Z,9.40
2017-07-27T03:28:48.963Z,8.10
2017-07-27T03:31:17.224Z,8.13
2017-07-27T03:33:45.467Z,9.73
2017-07-27T03:36:13.750Z,7.57
2017-07-27T03:38:42.002Z,9.30
2017-07-27T03:41:10.266Z,9.20
2017-07-27T03:43:39.018Z,8.40
2017-07-27T03:46:07.772Z,8.70
2017-07-27T03:48:37.087Z,8.80
2017-07-27T03:51:06.000Z,12.20
2017-07-27T03:53:34.887Z,8.93
2017-07-27T03:56:03.586Z,8.03
2017-07-27T03:58:31.882Z,7.57
2017-07-27T04:01:00.512Z,7.60
2017-07-27T04:03:28.754Z,8.17
2017-07-27T04:05:57.691Z,7.83
2017-07-27T04:08:25.951Z,9.13
2017-07-27T04:10:54.272Z,8.67
2017-07-27T04:13:22.569Z,10.00
2017-07-27T04:15:51.048Z,9.27
2017-07-27T04:18:19.303Z,8.60
2017-07-27T04:20:47.591Z,7.20
2017-07-27T04:23:16.226Z,7.70
2017-07-27T04:25:44.493Z,8.13
2017-07-27T04:28:12.765Z,8.20
2017-07-27T04:30:41.007Z,8.60
2017-07-27T04:33:09.253Z,7.83
2017-07-27T04:35:37.528Z,9.40
2017-07-27T04:38:05.777Z,7.80
2017-07-27T04:40:34.026Z,7.17
2017-07-27T04:43:02.516Z,6.90
2017-07-27T04:45:30.776Z,7.17
2017-07-27T04:47:59.408Z,7.57
2017-07-27T04:50:27.880Z,9.10
2017-07-27T04:52:56.141Z,8.67
2017-07-27T04:55:24.385Z,6.90
2017-07-27T04:58:01.483Z,6.23
2017-07-27T05:00:29.954Z,7.30
2017-07-27T05:02:58.206Z,6.87
2017-07-27T05:05:26.509Z,7.70
2017-07-27T05:07:54.778Z,8.53
2017-07-27T05:10:23.026Z,9.47
2017-07-27T05:12:51.454Z,9.20
2017-07-27T05:15:19.924Z,6.70
2017-07-27T05:17:48.194Z,7.67
2017-07-27T05:20:16.689Z,8.23
2017-07-27T05:22:44.945Z,7.40
2017-07-27T05:25:13.201Z,7.77
2017-07-27T05:27:41.828Z,8.47
2017-07-27T05:30:10.082Z,6.70
2017-07-27T05:32:38.710Z,8.37
2017-07-27T05:35:07.003Z,7.60
2017-07-27T05:37:35.244Z,7.57
2017-07-27T05:40:04.167Z,7.10
2017-07-27T05:42:32.852Z,7.73
2017-07-27T05:45:01.327Z,7.37
2017-07-27T05:47:29.592Z,7.70
2017-07-27T05:49:58.281Z,6.97
2017-07-27T05:52:26.552Z,6.30
2017-07-27T05:54:54.819Z,5.80
2017-07-27T05:57:24.363Z,6.83
2017-07-27T05:59:52.621Z,7.10
2017-07-27T06:02:20.875Z,5.87
2017-07-27T06:04:49.140Z,6.77
2017-07-27T06:07:17.375Z,4.80
2017-07-27T06:09:46.021Z,5.23
2017-07-27T06:12:14.440Z,5.97
2017-07-27T06:14:42.709Z,5.70
2017-07-27T06:17:10.946Z,5.40
2017-07-27T06:19:39.307Z,7.73
2017-07-27T06:22:07.640Z,7.20
2017-07-27T06:24:35.869Z,7.23
2017-07-27T06:27:04.130Z,8.43
2017-07-27T06:29:32.366Z,9.07
2017-07-27T06:32:00.611Z,6.50
2017-07-27T06:34:29.079Z,6.77
2017-07-27T06:36:57.328Z,6.77
2017-07-27T06:39:25.803Z,6.77
2017-07-27T06:41:54.068Z,7.60
2017-07-27T06:44:22.735Z,7.40
2017-07-27T06:46:50.978Z,6.53
2017-07-27T06:49:19.467Z,6.73
2017-07-27T06:51:47.692Z,12.70
2017-07-27T06:54:15.940Z,7.97
2017-07-27T06:56:44.248Z,7.53
2017-07-27T06:59:12.876Z,8.60
2017-07-27T07:01:41.442Z,9.50
2017-07-27T07:04:10.647Z,8.00
2017-07-27T07:06:38.918Z,9.30
2017-07-27T07:09:07.445Z,10.00
2017-07-27T07:11:35.744Z,8.67
2017-07-27T07:14:03.992Z,8.00
2017-07-27T07:16:32.246Z,7.70
2017-07-27T07:19:00.508Z,8.50
2017-07-27T07:21:28.746Z,7.70
2017-07-27T07:23:56.984Z,9.27
2017-07-27T07:26:25.539Z,9.40
2017-07-27T07:28:53.992Z,9.83
2017-07-27T07:31:22.239Z,10.73
2017-07-27T07:33:50.489Z,8.80
2017-07-27T07:36:18.730Z,9.10
2017-07-27T07:38:47.225Z,6.83
2017-07-27T07:41:15.457Z,9.77
2017-07-27T07:43:43.707Z,7.67
2017-07-27T07:46:12.291Z,7.80
2017-07-27T07:48:40.611Z,7.70
2017-07-27T07:51:08.873Z,7.20
2017-07-27T07:53:37.579Z,7.43
2017-07-27T07:56:05.812Z,7.30
2017-07-27T07:58:34.045Z,8.90
2017-07-27T08:01:02.307Z,8.20
2017-07-27T08:03:30.551Z,8.57
2017-07-27T08:05:59.208Z,7.80
2017-07-27T08:08:27.469Z,7.03
2017-07-27T08:10:55.696Z,6.23
2017-07-27T08:13:24.372Z,7.83
2017-07-27T08:15:53.034Z,7.57
2017-07-27T08:18:21.521Z,7.30
2017-07-27T08:20:49.763Z,7.53
2017-07-27T08:23:18.217Z,6.70
2017-07-27T08:25:46.543Z,7.07
2017-07-27T08:28:14.789Z,7.43
2017-07-27T08:30:43.060Z,7.13
2017-07-27T08:33:11.375Z,6.40
2017-07-27T08:35:39.643Z,6.97
2017-07-27T08:38:07.900Z,6.20
2017-07-27T08:40:36.144Z,6.80
2017-07-27T08:43:04.382Z,6.30
2017-07-27T08:45:32.658Z,7.67
2017-07-27T08:48:00.996Z,6.73
2017-07-27T08:50:29.247Z,6.40
2017-07-27T08:52:57.520Z,6.20
2017-07-27T08:55:25.798Z,7.00
2017-07-27T08:57:54.087Z,6.20
2017-07-27T09:00:22.385Z,7.57
2017-07-27T09:02:51.051Z,6.70
2017-07-27T09:05:19.567Z,7.17
2017-07-27T09:07:47.868Z,7.23
2017-07-27T09:10:16.110Z,6.57
2017-07-27T09:12:45.791Z,5.60
2017-07-27T09:15:14.230Z,6.40
2017-07-27T09:17:42.509Z,6.70
2017-07-27T09:20:10.762Z,6.03
2017-07-27T09:22:39.207Z,5.93
2017-07-27T09:25:07.473Z,5.90
2017-07-27T09:27:35.724Z,6.30
2017-07-27T09:30:04.089Z,6.20
2017-07-27T09:32:32.561Z,6.80
2017-07-27T09:35:00.820Z,6.00
2017-07-27T09:37:29.479Z,6.40
2017-07-27T09:39:57.733Z,6.37
2017-07-27T09:42:25.977Z,6.80
2017-07-27T09:44:54.317Z,6.33
2017-07-27T09:47:22.774Z,6.80
2017-07-27T09:49:51.029Z,6.20
2017-07-27T09:52:19.838Z,6.80
2017-07-27T09:54:48.098Z,6.50
2017-07-27T09:57:22.480Z,7.30
2017-07-27T09:59:50.728Z,7.73
2017-07-27T10:02:19.180Z,6.77
2017-07-27T10:04:48.115Z,7.63
2017-07-27T10:07:16.360Z,7.00
2017-07-27T10:09:44.655Z,7.73
2017-07-27T10:12:13.424Z,6.50
2017-07-27T10:14:41.789Z,6.10
2017-07-27T10:17:10.435Z,6.33
2017-07-27T10:19:39.326Z,7.00
2017-07-27T10:22:07.551Z,6.33
2017-07-27T10:24:35.800Z,6.53
2017-07-27T10:27:04.590Z,6.77
2017-07-27T10:29:32.857Z,6.97
2017-07-27T10:32:01.536Z,7.77
2017-07-27T10:34:30.146Z,7.00
2017-07-27T10:36:58.785Z,7.80
2017-07-27T10:39:27.031Z,7.70
2017-07-27T10:41:55.298Z,8.03
2017-07-27T10:44:23.766Z,7.70
2017-07-27T10:46:52.384Z,8.23
2017-07-27T10:49:20.674Z,8.37
2017-07-27T10:51:49.348Z,8.83
2017-07-27T10:54:17.612Z,9.20
2017-07-27T10:56:45.895Z,8.03
2017-07-27T10:59:14.143Z,27.53
2017-07-27T11:01:42.389Z,29.10
2017-07-27T11:04:11.233Z,26.73
2017-07-27T11:06:39.509Z,19.50
2017-07-27T11:09:07.754Z,9.03
2017-07-27T11:11:36.193Z,10.80
2017-07-27T11:14:04.510Z,9.23
2017-07-27T11:16:33.154Z,7.70
2017-07-27T11:19:01.441Z,7.70
2017-07-27T11:21:29.708Z,6.83
2017-07-27T11:23:58.092Z,7.57
2017-07-27T11:26:26.356Z,6.97
2017-07-27T11:28:54.625Z,7.17
2017-07-27T11:31:22.930Z,7.90
2017-07-27T11:33:51.228Z,7.70
2017-07-27T11:36:19.876Z,7.70
2017-07-27T11:38:48.203Z,8.10
2017-07-27T11:41:16.741Z,8.83
2017-07-27T11:43:45.030Z,8.50
2017-07-27T11:46:13.575Z,8.67
2017-07-27T11:48:41.913Z,29.47
2017-07-27T11:51:10.197Z,17.87
2017-07-27T11:53:38.480Z,25.70
2017-07-27T11:56:06.765Z,11.83
2017-07-27T11:58:35.095Z,9.57
2017-07-27T12:01:03.352Z,13.50
2017-07-27T12:03:31.652Z,79.67
2017-07-27T12:06:00.034Z,21.53
2017-07-27T12:08:28.397Z,17.00
2017-07-27T12:10:56.694Z,14.80
2017-07-27T12:13:25.333Z,11.33
2017-07-27T12:15:54.393Z,11.10
2017-07-27T12:18:23.081Z,9.83
2017-07-27T12:20:52.246Z,9.70
2017-07-27T12:23:20.935Z,9.10
2017-07-27T12:25:49.600Z,9.27
2017-07-27T12:28:18.092Z,8.70
2017-07-27T12:30:46.882Z,9.40
2017-07-27T12:33:15.328Z,9.43
2017-07-27T12:35:43.590Z,9.13
2017-07-27T12:38:11.844Z,9.10
2017-07-27T12:40:40.129Z,8.07
2017-07-27T12:43:08.420Z,6.23
2017-07-27T12:45:36.696Z,5.80
2017-07-27T12:48:04.986Z,6.97
2017-07-27T12:50:33.261Z,7.40
2017-07-27T12:53:01.528Z,7.90
2017-07-27T12:55:29.790Z,8.43
2017-07-27T12:57:58.052Z,9.50
2017-07-27T13:00:26.326Z,11.70
2017-07-27T13:02:54.746Z,9.83
2017-07-27T13:05:22.997Z,11.37
2017-07-27T13:07:51.247Z,9.77
2017-07-27T13:10:19.673Z,10.70
2017-07-27T13:12:47.979Z,9.97
2017-07-27T13:15:16.229Z,12.20
2017-07-27T13:17:44.825Z,11.00
2017-07-27T13:20:13.056Z,12.63
2017-07-27T13:22:41.378Z,11.73
2017-07-27T13:25:11.646Z,10.70
2017-07-27T13:27:40.053Z,10.53
2017-07-27T13:30:08.352Z,8.67
2017-07-27T13:32:37.404Z,9.67
2017-07-27T13:35:05.662Z,10.30
2017-07-27T13:37:33.985Z,12.27
2017-07-27T13:40:02.324Z,11.90
2017-07-27T13:42:30.823Z,10.70
2017-07-27T13:44:59.170Z,11.00
2017-07-27T13:47:27.467Z,11.07
2017-07-27T13:49:55.766Z,10.97
2017-07-27T13:52:24.481Z,10.17
2017-07-27T13:54:52.764Z,10.10
2017-07-27T13:57:21.036Z,9.80
2017-07-27T13:59:49.306Z,9.33
2017-07-27T14:02:17.592Z,7.80
2017-07-27T14:04:45.850Z,8.80
2017-07-27T14:07:14.154Z,8.30
2017-07-27T14:09:42.590Z,8.97
2017-07-27T14:12:11.070Z,9.73
2017-07-27T14:14:39.343Z,8.47
2017-07-27T14:17:07.773Z,7.43
2017-07-27T14:19:36.394Z,9.30
2017-07-27T14:22:04.662Z,7.70
2017-07-27T14:24:33.362Z,7.73
2017-07-27T14:27:01.664Z,7.17
2017-07-27T14:29:29.970Z,6.73
2017-07-27T14:31:58.416Z,7.37
2017-07-27T14:34:26.708Z,7.40
2017-07-27T14:36:56.074Z,7.83
2017-07-27T14:39:25.357Z,7.70
2017-07-27T14:41:53.840Z,7.00
2017-07-27T14:44:22.121Z,6.87
2017-07-27T14:46:50.421Z,6.37
2017-07-27T14:49:18.695Z,6.53
2017-07-27T14:51:46.943Z,6.00
2017-07-27T14:54:15.225Z,6.30
2017-07-27T14:56:43.511Z,6.80
2017-07-27T14:59:11.756Z,6.90
2017-07-27T15:01:40.597Z,5.70
2017-07-27T15:04:08.838Z,6.50
2017-07-27T15:06:37.075Z,6.70
2017-07-27T15:09:05.414Z,6.83
2017-07-27T15:11:34.165Z,7.40
2017-07-27T15:14:03.087Z,7.60
2017-07-27T15:16:32.148Z,8.37
2017-07-27T15:19:00.846Z,8.37
2017-07-27T15:21:29.236Z,7.13
2017-07-27T15:23:57.517Z,6.80
2017-07-27T15:26:25.814Z,7.03
2017-07-27T15:28:54.105Z,6.70
2017-07-27T15:31:22.397Z,6.70
2017-07-27T15:33:51.066Z,7.13
2017-07-27T15:36:19.412Z,7.60
2017-07-27T15:38:48.146Z,7.27
2017-07-27T15:41:16.537Z,7.40
2017-07-27T15:43:44.768Z,6.80
2017-07-27T15:46:13.060Z,7.57
2017-07-27T15:48:41.302Z,11.00
2017-07-27T15:51:09.555Z,74.63
2017-07-27T15:53:37.920Z,109.67
2017-07-27T15:56:06.271Z,9.00
2017-07-27T15:58:34.504Z,21.97
2017-07-27T16:01:02.945Z,115.53
2017-07-27T16:03:31.603Z,96.50
2017-07-27T16:05:59.857Z,69.53
2017-07-27T16:08:28.236Z,86.80
2017-07-27T16:10:56.573Z,42.60
2017-07-27T16:13:24.828Z,43.90
2017-07-27T16:15:53.138Z,28.07
2017-07-27T16:18:21.501Z,51.40
2017-07-27T16:20:49.817Z,41.70
2017-07-27T16:23:18.085Z,9.67
2017-07-27T16:25:46.403Z,28.23
2017-07-27T16:28:14.727Z,60.87
2017-07-27T16:30:43.006Z,25.23
2017-07-27T16:33:11.295Z,32.93
2017-07-27T16:35:40.294Z,43.03
2017-07-27T16:38:09.342Z,50.23
2017-07-27T16:40:37.646Z,20.93
2017-07-27T16:43:05.919Z,30.50
2017-07-27T16:45:34.214Z,30.70
2017-07-27T16:48:02.526Z,9.67
2017-07-27T16:50:30.875Z,9.40
2017-07-27T16:52:59.318Z,9.70
2017-07-27T16:55:27.606Z,8.60
2017-07-27T16:57:55.865Z,17.73
2017-07-27T17:00:25.484Z,8.87
2017-07-27T17:02:54.225Z,12.43
2017-07-27T17:05:22.492Z,12.03
2017-07-27T17:07:50.878Z,13.63
2017-07-27T17:10:19.947Z,8.80
2017-07-27T17:12:49.013Z,12.50
2017-07-27T17:15:17.449Z,20.57
2017-07-27T17:17:45.739Z,14.57
2017-07-27T17:20:13.984Z,9.27
2017-07-27T17:22:42.265Z,17.03
2017-07-27T17:25:10.566Z,17.80
2017-07-27T17:27:39.239Z,10.53
2017-07-27T17:30:07.674Z,15.63
2017-07-27T17:32:35.989Z,12.03
2017-07-27T17:35:04.261Z,9.50
2017-07-27T17:37:32.706Z,17.00
2017-07-27T17:40:00.978Z,16.20
2017-07-27T17:42:29.275Z,10.30
2017-07-27T17:44:57.689Z,14.87
2017-07-27T17:47:26.323Z,9.90
2017-07-27T17:49:55.123Z,13.40
2017-07-27T17:52:23.857Z,12.90
2017-07-27T17:54:52.964Z,15.60
2017-07-27T17:57:21.383Z,10.87
2017-07-27T17:59:50.077Z,12.10
2017-07-27T18:02:18.791Z,9.90
2017-07-27T18:04:47.158Z,10.57
2017-07-27T18:07:15.503Z,12.20
2017-07-27T18:09:43.771Z,10.80
2017-07-27T18:12:12.297Z,11.77
2017-07-27T18:14:40.597Z,10.53
2017-07-27T18:17:08.856Z,10.93
2017-07-27T18:19:37.102Z,10.93
2017-07-27T18:22:05.398Z,10.67
2017-07-27T18:24:33.654Z,9.33
2017-07-27T18:27:01.902Z,10.80
2017-07-27T18:29:30.190Z,11.67
2017-07-27T18:31:58.448Z,11.20
2017-07-27T18:34:27.081Z,10.70
2017-07-27T18:36:55.533Z,10.27
2017-07-27T18:39:23.848Z,11.40
2017-07-27T18:41:52.152Z,11.20
2017-07-27T18:44:20.581Z,11.20
2017-07-27T18:46:48.838Z,10.47
2017-07-27T18:49:17.075Z,10.40
2017-07-27T18:51:45.606Z,10.10
2017-07-27T18:54:13.898Z,10.40
2017-07-27T18:56:42.146Z,10.87
2017-07-27T18:59:10.595Z,9.77
2017-07-27T19:01:39.627Z,10.03
2017-07-27T19:04:08.658Z,9.97
2017-07-27T19:06:36.963Z,9.73
2017-07-27T19:09:05.200Z,9.13
2017-07-27T19:11:33.437Z,9.53
2017-07-27T19:14:01.728Z,9.50
2017-07-27T19:16:30.206Z,9.20
2017-07-27T19:18:58.476Z,8.60
2017-07-27T19:21:27.022Z,7.97
2017-07-27T19:23:55.261Z,6.43
2017-07-27T19:26:23.526Z,4.50
2017-07-27T19:28:51.806Z,4.80
2017-07-27T19:31:20.070Z,4.47
2017-07-27T19:33:48.344Z,3.43
2017-07-27T19:36:17.482Z,2.60
2017-07-27T19:38:45.715Z,3.87
2017-07-27T19:41:13.951Z,3.50
2017-07-27T19:43:42.212Z,3.00
2017-07-27T19:46:10.453Z,2.83
2017-07-27T19:48:38.697Z,3.17
2017-07-27T19:51:07.541Z,3.90
2017-07-27T19:53:35.810Z,3.40
2017-07-27T19:56:04.035Z,3.73
2017-07-27T19:58:32.700Z,2.93
2017-07-27T20:01:01.483Z,4.50
2017-07-27T20:03:31.525Z,3.37
2017-07-27T20:06:00.519Z,3.23
2017-07-27T20:08:29.868Z,2.90
2017-07-27T20:10:58.125Z,3.30
2017-07-27T20:13:28.642Z,3.20
2017-07-27T20:15:56.890Z,3.30
2017-07-27T20:18:25.139Z,2.90
2017-07-27T20:20:53.627Z,2.83
2017-07-27T20:23:21.883Z,2.23
2017-07-27T20:25:50.142Z,2.20
2017-07-27T20:28:18.536Z,2.00
2017-07-27T20:30:47.414Z,2.30
2017-07-27T20:33:15.697Z,2.60
2017-07-27T20:35:44.995Z,2.30
2017-07-27T20:38:13.264Z,2.33
2017-07-27T20:40:41.512Z,2.40
2017-07-27T20:43:09.809Z,2.60
2017-07-27T20:45:38.081Z,2.40
2017-07-27T20:48:06.309Z,2.60
2017-07-27T20:50:34.720Z,2.90
2017-07-27T20:53:02.973Z,3.20
2017-07-27T20:55:32.000Z,3.90
2017-07-27T20:58:00.275Z,3.20
2017-07-27T21:00:28.664Z,3.40
2017-07-27T21:02:56.926Z,3.30
2017-07-27T21:05:28.475Z,3.40
2017-07-27T21:07:57.506Z,3.53
2017-07-27T21:10:25.799Z,3.87
2017-07-27T21:12:54.218Z,3.67
2017-07-27T21:15:22.836Z,4.03
2017-07-27T21:17:51.078Z,3.60
2017-07-27T21:20:20.633Z,4.20
2017-07-27T21:22:49.509Z,4.27
2017-07-27T21:25:17.748Z,3.73
2017-07-27T21:27:46.089Z,4.10
2017-07-27T21:30:15.977Z,3.77
2017-07-27T21:32:44.221Z,4.17
2017-07-27T21:35:15.044Z,4.20
2017-07-27T21:37:43.396Z,4.20
2017-07-27T21:40:11.642Z,4.10
2017-07-27T21:42:40.152Z,3.87
2017-07-27T21:45:08.401Z,3.90
2017-07-27T21:47:36.658Z,3.63
2017-07-27T21:50:04.932Z,3.83
2017-07-27T21:52:33.198Z,4.40
2017-07-27T21:55:01.422Z,4.10
2017-07-27T21:57:29.713Z,3.83
2017-07-27T21:59:58.168Z,4.00
2017-07-27T22:02:26.408Z,4.00
2017-07-27T22:04:54.856Z,3.73
2017-07-27T22:07:23.099Z,3.80
2017-07-27T22:09:51.681Z,4.60
2017-07-27T22:12:20.057Z,3.73
2017-07-27T22:14:48.359Z,3.90
2017-07-27T22:17:16.595Z,3.77
2017-07-27T22:19:47.236Z,3.73
2017-07-27T22:22:15.987Z,3.50
2017-07-27T22:24:44.630Z,3.97
2017-07-27T22:27:12.913Z,4.30
2017-07-27T22:29:41.153Z,3.90
2017-07-27T22:32:09.409Z,3.80
2017-07-27T22:34:37.844Z,3.60
2017-07-27T22:37:06.080Z,3.57
2017-07-27T22:39:34.342Z,3.83
2017-07-27T22:42:02.887Z,3.87
2017-07-27T22:44:31.120Z,3.40
2017-07-27T22:46:59.363Z,3.40
2017-07-27T22:49:27.663Z,3.80
2017-07-27T22:51:55.920Z,3.70
2017-07-27T22:54:24.161Z,3.53
2017-07-27T22:56:52.440Z,4.10
2017-07-27T22:59:20.715Z,3.60
2017-07-27T23:01:48.948Z,3.57
2017-07-27T23:04:17.388Z,3.70
2017-07-27T23:06:46.041Z,3.40
2017-07-27T23:09:14.287Z,3.47
2017-07-27T23:11:42.938Z,4.30
2017-07-27T23:14:11.161Z,3.70
2017-07-27T23:16:39.404Z,3.30
2017-07-27T23:19:07.676Z,4.10
2017-07-27T23:21:37.001Z,3.50
2017-07-27T23:24:05.372Z,4.03
2017-07-27T23:26:33.647Z,4.30
2017-07-27T23:29:02.118Z,3.77
2017-07-27T23:31:30.355Z,3.70
2017-07-27T23:33:59.043Z,4.03
2017-07-27T23:36:27.680Z,4.37
2017-07-27T23:38:55.930Z,4.43
2017-07-27T23:41:24.373Z,4.50
2017-07-27T23:43:52.621Z,4.57
2017-07-27T23:46:20.864Z,4.40
2017-07-27T23:48:49.139Z,3.90
2017-07-27T23:51:17.384Z,4.73
2017-07-27T23:53:46.030Z,3.67
2017-07-27T23:56:14.327Z,3.93
2017-07-27T23:58:42.808Z,4.50
